Flight Track Log - Related Links

Times and Time Zones

All times are in EDT time to prevent confusion due to time zone crossing. See the AUB1673 flight status page for this flight to view local times or setup timezone preferences in your user account.

Time Position Orientation Groundspeed Altitude Reporting Facility
EDT Latitude Longitude Course Direction KTS MPH feet Rate Location/Type
Sun 11:54:32 PM 47.4838 19.5359 282° West  Level Estimated
Sun 11:55:32 PM 47.5018 19.4141 282° West  Level Estimated
Sun 11:56:32 PM 47.5196 19.2923 282° West  Level Estimated
Sun 11:57:32 PM 47.5374 19.1704 282° West  Level Estimated
Sun 11:58:32 PM 47.5550 19.0483 282° West  Level Estimated
Sun 11:59:32 PM 47.5724 18.9263 282° West  Level Estimated
Mon 12:00:32 AM 47.5897 18.8041 282° West  Level Estimated
Mon 12:01:32 AM 47.6069 18.6818 282° West  Level Estimated
Mon 12:02:32 AM 47.6240 18.5595 282° West  Level Estimated
Mon 12:03:32 AM 47.6409 18.4371 282° West  Level Estimated
Mon 12:04:32 AM 47.6578 18.3146 281° West  Level Estimated
Mon 12:05:32 AM 47.6744 18.1920 281° West  Level Estimated
Mon 12:06:32 AM 47.6910 18.0694 281° West  Level Estimated
Mon 12:07:32 AM 47.7074 17.9467 281° West  Level Estimated
Mon 12:08:32 AM 47.7237 17.8239 281° West  Level Estimated
Mon 12:09:32 AM 47.7399 17.7010 281° West  Level Estimated
Mon 12:10:32 AM 47.7559 17.5780 281° West  Level Estimated
Mon 12:11:32 AM 47.7718 17.4550 281° West  Level Estimated
Mon 12:12:32 AM 47.7876 17.3319 281° West  Level Estimated
Mon 12:13:32 AM 47.8032 17.2087 281° West  Level Estimated
Mon 12:14:32 AM 47.8187 17.0855 281° West  Level Estimated
Mon 12:15:32 AM 47.8341 16.9622 280° West  Level Estimated
Mon 12:16:32 AM 47.8493 16.8388 280° West  Level Estimated
Mon 12:17:32 AM 47.8644 16.7153 280° West  Level Estimated
Mon 12:18:32 AM 47.8794 16.5917 280° West  Level Estimated
Mon 12:19:32 AM 47.8942 16.4681 280° West  Level Estimated
Mon 12:20:32 AM 47.9089 16.3444 280° West  Level Estimated
Mon 12:21:32 AM 47.9235 16.2207 280° West  Level Estimated
Mon 12:22:32 AM 47.9380 16.0969 280° West  Level Estimated
Mon 12:23:32 AM 47.9523 15.9730 280° West  Level Estimated
Mon 12:24:32 AM 47.9664 15.8490 280° West  Level Estimated
Mon 12:25:32 AM 47.9805 15.7250 280° West  Level Estimated
Mon 12:26:32 AM 47.9944 15.6009 279° West  Level Estimated
Mon 12:27:32 AM 48.0081 15.4768 279° West  Level Estimated
Mon 12:28:32 AM 48.0218 15.3525 279° West  Level Estimated
Mon 12:29:32 AM 48.0353 15.2282 279° West  Level Estimated
Mon 12:30:32 AM 48.0487 15.1039 279° West  Level Estimated
Mon 12:31:32 AM 48.0619 14.9795 279° West  Level Estimated
Mon 12:32:32 AM 48.0750 14.8550 279° West  Level Estimated
Mon 12:33:32 AM 48.0880 14.7304 279° West  Level Estimated
Mon 12:34:32 AM 48.1008 14.6058 279° West  Level Estimated
Mon 12:35:32 AM 48.1135 14.4811 279° West  Level Estimated
Mon 12:36:32 AM 48.1261 14.3564 279° West  Level Estimated
Mon 12:37:32 AM 48.1385 14.2316 278° West  Level Estimated
Mon 12:38:32 AM 48.1508 14.1067 278° West  Level Estimated
Mon 12:39:32 AM 48.1630 13.9818 278° West  Level Estimated
Mon 12:40:32 AM 48.1750 13.8569 278° West  Level Estimated
Mon 12:41:32 AM 48.1869 13.7318 278° West  Level Estimated
Mon 12:42:32 AM 48.1986 13.6067 278° West  Level Estimated
Mon 12:43:32 AM 48.2102 13.4816 278° West  Level Estimated
Mon 12:44:32 AM 48.2217 13.3564 278° West  Level Estimated
Mon 12:45:32 AM 48.2331 13.2311 278° West  Level Estimated
Mon 12:46:32 AM 48.2443 13.1058 278° West  Level Estimated
Mon 12:47:32 AM 48.2553 12.9804 278° West  Level Estimated
Mon 12:48:32 AM 48.2663 12.8550 277° West  Level Estimated
Mon 12:49:32 AM 48.2771 12.7296 277° West  Level Estimated
Mon 12:50:32 AM 48.2877 12.6040 277° West  Level Estimated
Mon 12:51:32 AM 48.2983 12.4784 277° West  Level Estimated
Mon 12:52:32 AM 48.3087 12.3528 277° West  Level Estimated
Mon 12:53:32 AM 48.3189 12.2271 277° West  Level Estimated
Mon 12:54:32 AM 48.3290 12.1014 277° West  Level Estimated
Mon 12:55:32 AM 48.3390 11.9756 277° West  Level Estimated
Mon 12:56:32 AM 48.3489 11.8498 277° West  Level Estimated
Mon 12:57:32 AM 48.3586 11.7239 97° East  Level Estimated
Mon 12:58:32 AM 48.3489 11.8498 277° West  Level Estimated
Mon 12:59:32 AM 48.3586 11.7239 97° East  Level Estimated
Mon 01:00:32 AM 48.3489 11.8498 277° West  Level Estimated
Mon 01:01:32 AM 48.3586 11.7239 97° East  Level Estimated
Mon 01:02:32 AM 48.3489 11.8498 277° West  Level Estimated
Mon 01:03:32 AM 48.3586 11.7239 97° East  Level Estimated
Mon 01:04:32 AM 48.3489 11.8498 277° West  Level Estimated
Mon 01:05:32 AM 48.3586 11.7239 97° East  Level Estimated
Mon 01:06:32 AM 48.3489 11.8498 277° West  Level Estimated
Mon 01:07:32 AM 48.3586 11.7239 97° East  Level Estimated
Mon 01:08:32 AM 48.3489 11.8498 97° East  Level Estimated

Login

Don't have an account? Register now (free) for customized features, flight alerts, and more!